createdAt,value
2022-12-19T00:10:19.141Z,-10.75
2022-12-19T00:15:22.453Z,-10.69
2022-12-19T00:20:26.011Z,-10.65
2022-12-19T00:25:30.650Z,-10.65
2022-12-19T00:30:35.403Z,-10.63
2022-12-19T00:35:39.309Z,-10.59
2022-12-19T00:40:44.817Z,-10.55
2022-12-19T00:45:48.054Z,-10.48
2022-12-19T00:50:51.723Z,-10.42
2022-12-19T00:55:56.349Z,-10.34
2022-12-19T01:01:00.020Z,-10.29
2022-12-19T01:06:03.598Z,-10.27
2022-12-19T01:11:09.003Z,-10.25
2022-12-19T01:16:14.799Z,-10.24
2022-12-19T01:21:18.036Z,-10.18
2022-12-19T01:26:22.743Z,-10.10
2022-12-19T01:31:26.237Z,-10.04
2022-12-19T01:36:30.048Z,-10.02
2022-12-19T01:41:34.656Z,-9.87
2022-12-19T01:46:42.720Z,-9.83
2022-12-19T01:51:49.103Z,-9.82
2022-12-19T01:56:56.916Z,-9.73
2022-12-19T02:02:09.131Z,-9.69
2022-12-19T02:07:16.162Z,-9.62
2022-12-19T02:12:21.551Z,-9.61
2022-12-19T02:17:35.952Z,-9.54
2022-12-19T02:22:53.088Z,-9.54
2022-12-19T02:28:40.322Z,-9.51
2022-12-19T02:33:52.309Z,-9.48
2022-12-19T02:39:02.956Z,-9.45
2022-12-19T02:44:06.994Z,-9.36
2022-12-19T02:49:12.808Z,-9.23
2022-12-19T02:54:21.646Z,-9.11
2022-12-19T02:59:41.646Z,-9.00
2022-12-19T03:04:55.845Z,-8.93
2022-12-19T03:10:09.209Z,-8.94
2022-12-19T03:15:14.028Z,-8.87
2022-12-19T03:20:26.564Z,-8.91
2022-12-19T03:25:32.073Z,-8.90
2022-12-19T03:30:36.344Z,-8.87
2022-12-19T03:35:42.773Z,-8.87
2022-12-19T03:40:48.324Z,-8.86
2022-12-19T03:45:57.855Z,-8.84
2022-12-19T03:51:12.675Z,-8.84
2022-12-19T03:56:22.469Z,-8.80
2022-12-19T04:01:27.889Z,-8.71
2022-12-19T04:06:35.288Z,-8.70
2022-12-19T04:11:43.305Z,-8.61
2022-12-19T04:16:51.083Z,-8.59
2022-12-19T04:22:07.808Z,-8.63
2022-12-19T04:27:14.020Z,-8.51
2022-12-19T04:32:17.375Z,-8.49
2022-12-19T04:37:22.229Z,-8.49
2022-12-19T04:42:25.799Z,-8.49
2022-12-19T04:47:29.187Z,-8.48
2022-12-19T04:52:35.307Z,-8.46
2022-12-19T04:57:38.614Z,-8.41
2022-12-19T05:02:41.959Z,-8.35
2022-12-19T05:07:47.368Z,-8.33
2022-12-19T05:12:52.059Z,-8.31
2022-12-19T05:17:55.238Z,-8.29
2022-12-19T05:23:03.502Z,-8.28
2022-12-19T05:28:08.662Z,-8.26
2022-12-19T05:38:32.288Z,-8.17
2022-12-19T05:43:35.639Z,-8.17
2022-12-19T05:48:39.587Z,-8.18
2022-12-19T05:53:44.251Z,-8.14
2022-12-19T05:58:48.415Z,-8.07
2022-12-19T06:03:52.015Z,-8.06
2022-12-19T06:08:58.053Z,-8.00
2022-12-19T06:14:01.299Z,-7.95
2022-12-19T06:19:04.580Z,-7.90
2022-12-19T06:24:10.027Z,-7.84
2022-12-19T06:29:13.323Z,-7.80
2022-12-19T06:34:39.510Z,-7.75
2022-12-19T06:39:41.124Z,-7.72
2022-12-19T06:44:44.564Z,-7.61
2022-12-19T06:49:48.597Z,-7.51
2022-12-19T06:54:53.154Z,-7.43
2022-12-19T06:59:57.120Z,-7.41
2022-12-19T07:05:04.204Z,-7.39
2022-12-19T07:10:10.695Z,-7.29
2022-12-19T07:15:14.141Z,-7.14
2022-12-19T07:20:18.542Z,-7.06
2022-12-19T07:25:23.344Z,-6.98
2022-12-19T07:30:26.538Z,-6.93
2022-12-19T07:35:30.218Z,-6.85
2022-12-19T07:40:35.034Z,-6.76
2022-12-19T07:45:39.435Z,-6.71
2022-12-19T07:50:42.902Z,-6.66
2022-12-19T07:55:47.936Z,-6.67
2022-12-19T08:00:55.980Z,-6.62
2022-12-19T08:06:01.913Z,-6.56
2022-12-19T08:11:14.490Z,-6.57
2022-12-19T08:16:17.807Z,-6.48
2022-12-19T08:21:21.111Z,-6.47
2022-12-19T08:26:26.426Z,-6.41
2022-12-19T08:31:30.289Z,-6.30
2022-12-19T08:36:34.177Z,-6.26
2022-12-19T08:41:38.878Z,-6.15
2022-12-19T08:46:46.666Z,-6.04
2022-12-19T08:51:53.434Z,-6.00
2022-12-19T08:56:58.011Z,-5.97
2022-12-19T09:02:01.897Z,-5.90
2022-12-19T09:07:05.468Z,-5.83
2022-12-19T09:12:11.246Z,-5.78
2022-12-19T09:17:14.709Z,-5.71
2022-12-19T09:22:18.172Z,-5.63
2022-12-19T09:27:22.726Z,-5.55
2022-12-19T09:32:25.941Z,-5.50
2022-12-19T09:37:29.134Z,-5.46
2022-12-19T09:42:48.329Z,-5.39
2022-12-19T09:47:51.773Z,-5.30
2022-12-19T09:53:02.733Z,-5.18
2022-12-19T09:58:13.913Z,-5.07
2022-12-19T10:03:25.807Z,-5.10
2022-12-19T10:08:32.987Z,-5.13
2022-12-19T10:13:59.736Z,-5.09
2022-12-19T10:19:06.422Z,-5.05
2022-12-19T10:24:28.796Z,-4.99
2022-12-19T10:29:54.005Z,-5.02
2022-12-19T10:34:57.655Z,-5.05
2022-12-19T10:40:27.728Z,-4.97
2022-12-19T10:45:39.214Z,-5.03
2022-12-19T10:50:44.713Z,-5.07
2022-12-19T10:55:50.109Z,-5.10
2022-12-19T11:01:05.295Z,-5.10
2022-12-19T11:06:29.439Z,-5.08
2022-12-19T11:13:12.999Z,-5.23
2022-12-19T11:23:51.273Z,-5.04
2022-12-19T11:29:40.577Z,-4.99
2022-12-19T11:30:25.641Z,-4.96
2022-12-19T11:33:19.039Z,-4.95
2022-12-19T11:38:36.099Z,-4.92
2022-12-19T11:43:48.764Z,-4.91
2022-12-19T11:48:57.983Z,-4.93
2022-12-19T11:54:08.184Z,-4.91
2022-12-19T11:59:19.548Z,-4.89
2022-12-19T12:04:52.535Z,-4.88
2022-12-19T12:15:23.532Z,-4.83
2022-12-19T12:24:05.052Z,-4.80
2022-12-19T12:31:16.967Z,-4.76
2022-12-19T12:31:44.724Z,-4.73
2022-12-19T12:35:50.919Z,-4.73
2022-12-19T12:38:26.911Z,-4.70
2022-12-19T12:43:48.123Z,-4.69
2022-12-19T12:48:56.862Z,-4.65
2022-12-19T12:54:07.785Z,-4.59
2022-12-19T12:59:24.452Z,-4.58
2022-12-19T13:04:34.208Z,-4.57
2022-12-19T13:09:38.947Z,-4.55
2022-12-19T13:14:48.699Z,-4.51
2022-12-19T13:19:57.272Z,-4.47
2022-12-19T13:25:02.463Z,-4.42
2022-12-19T13:30:16.845Z,-4.41
2022-12-19T13:37:04.098Z,-4.32
2022-12-19T13:41:02.380Z,-4.29
2022-12-19T13:46:07.680Z,-4.24
2022-12-19T13:51:12.167Z,-4.16
2022-12-19T13:56:19.646Z,-4.12
2022-12-19T14:01:27.056Z,-4.06
2022-12-19T14:06:33.023Z,-4.02
2022-12-19T14:12:49.548Z,-3.99
2022-12-19T14:17:10.217Z,-3.95
2022-12-19T14:22:22.837Z,-3.90
2022-12-19T14:28:24.866Z,-3.94
2022-12-19T14:33:44.567Z,-3.90
2022-12-19T14:39:23.171Z,-3.84
2022-12-19T14:53:33.929Z,-3.82
2022-12-19T14:54:24.919Z,-3.78
2022-12-19T14:56:17.753Z,-3.74
2022-12-19T15:01:09.961Z,-3.78
2022-12-19T15:07:05.284Z,-3.76
2022-12-19T15:12:39.435Z,-3.85
2022-12-19T15:17:29.218Z,-3.64
2022-12-19T15:22:32.611Z,-3.64
2022-12-19T15:27:35.888Z,-3.62
2022-12-19T15:32:40.828Z,-3.60
2022-12-19T15:37:44.457Z,-3.57
2022-12-19T15:42:52.425Z,-3.53
2022-12-19T15:47:57.392Z,-3.53
2022-12-19T15:53:03.432Z,-3.57
2022-12-19T15:58:08.140Z,-3.46
2022-12-19T16:03:23.438Z,-3.47
2022-12-19T16:08:28.385Z,-3.46
2022-12-19T16:13:34.374Z,-3.45
2022-12-19T16:18:39.385Z,-3.43
2022-12-19T16:23:42.652Z,-3.42
2022-12-19T16:28:45.844Z,-3.38
2022-12-19T16:33:51.203Z,-3.36
2022-12-19T16:38:54.659Z,-3.33
2022-12-19T16:43:57.959Z,-3.29
2022-12-19T16:49:03.254Z,-3.28
2022-12-19T16:54:06.638Z,-3.27
2022-12-19T16:59:17.510Z,-3.26
2022-12-19T17:04:24.382Z,-3.31
2022-12-19T17:09:27.677Z,-3.21
2022-12-19T17:14:33.127Z,-3.21
2022-12-19T17:19:41.831Z,-3.24
2022-12-19T17:24:49.297Z,-3.24
2022-12-19T17:29:52.751Z,-3.16
2022-12-19T17:34:57.611Z,-3.14
2022-12-19T17:40:01.148Z,-3.11
2022-12-19T17:45:04.585Z,-3.10
2022-12-19T17:50:21.418Z,-3.11
2022-12-19T17:55:26.158Z,-3.06
2022-12-19T18:00:32.539Z,-3.05
2022-12-19T18:05:38.212Z,-3.03
2022-12-19T18:10:41.597Z,-3.00
2022-12-19T18:15:45.192Z,-2.99
2022-12-19T18:20:49.891Z,-2.99
2022-12-19T18:25:59.447Z,-3.01
2022-12-19T18:31:11.917Z,-3.01
2022-12-19T18:36:21.102Z,-3.17
2022-12-19T18:41:24.685Z,-3.01
2022-12-19T18:46:29.927Z,-3.03
2022-12-19T18:51:34.574Z,-3.05
2022-12-19T18:56:37.996Z,-3.06
2022-12-19T19:01:43.976Z,-3.04
2022-12-19T19:06:52.338Z,-3.05
2022-12-19T19:11:56.028Z,-3.06
2022-12-19T19:16:59.635Z,-3.06
2022-12-19T19:22:04.467Z,-3.05
2022-12-19T19:27:08.765Z,-3.09
2022-12-19T19:32:12.194Z,-3.10
2022-12-19T19:37:29.579Z,-3.13
2022-12-19T19:42:33.332Z,-3.11
2022-12-19T19:47:37.545Z,-3.14
2022-12-19T19:52:42.353Z,-3.15
2022-12-19T19:57:45.662Z,-3.16
2022-12-19T20:02:49.674Z,-3.15
2022-12-19T20:07:54.986Z,-3.16
2022-12-19T20:12:58.242Z,-3.17
2022-12-19T20:18:01.480Z,-3.18
2022-12-19T20:23:06.395Z,-3.18
2022-12-19T20:28:09.873Z,-3.22
2022-12-19T20:33:13.366Z,-3.29
2022-12-19T20:38:18.402Z,-3.32
2022-12-19T20:43:21.684Z,-3.33
2022-12-19T20:48:24.945Z,-3.32
2022-12-19T20:53:29.813Z,-3.39
2022-12-19T20:58:35.020Z,-3.41
2022-12-19T21:03:39.541Z,-3.42
2022-12-19T21:08:45.036Z,-3.45
2022-12-19T21:13:48.607Z,-3.48
2022-12-19T21:18:52.423Z,-3.50
2022-12-19T21:23:57.670Z,-3.54
2022-12-19T21:29:01.207Z,-3.59
2022-12-19T21:34:04.412Z,-3.63
2022-12-19T21:39:09.148Z,-3.68
2022-12-19T21:44:12.768Z,-3.72
2022-12-19T21:49:16.090Z,-3.75
2022-12-19T21:54:20.792Z,-3.78
2022-12-19T21:59:24.007Z,-3.82
2022-12-19T22:04:28.027Z,-3.84
2022-12-19T22:09:33.049Z,-3.85
2022-12-19T22:14:36.373Z,-3.87
2022-12-19T22:19:40.160Z,-3.85
2022-12-19T22:24:44.798Z,-3.86
2022-12-19T22:29:48.254Z,-3.91
2022-12-19T22:34:51.516Z,-3.94
2022-12-19T22:40:00.214Z,-3.99
2022-12-19T22:45:04.009Z,-4.01
2022-12-19T22:50:10.604Z,-4.05
2022-12-19T22:55:15.277Z,-4.08
2022-12-19T23:00:18.820Z,-4.13
2022-12-19T23:05:22.041Z,-4.12
2022-12-19T23:10:27.037Z,-4.27
2022-12-19T23:15:30.442Z,-4.14
2022-12-19T23:20:33.713Z,-4.16
2022-12-19T23:25:41.733Z,-4.17
2022-12-19T23:30:44.976Z,-4.14
2022-12-19T23:35:48.188Z,-4.18
2022-12-19T23:40:52.905Z,-4.19
2022-12-19T23:45:56.532Z,-4.21
2022-12-19T23:51:01.171Z,-4.25
2022-12-19T23:56:11.653Z,-4.25
